createdAt,value
2018-12-18T00:00:20.285Z,30.90
2018-12-18T00:02:48.005Z,30.07
2018-12-18T00:05:20.980Z,30.77
2018-12-18T00:07:48.429Z,32.07
2018-12-18T00:10:15.901Z,32.80
2018-12-18T00:12:43.351Z,32.13
2018-12-18T00:15:10.823Z,32.97
2018-12-18T00:17:38.272Z,34.00
2018-12-18T00:20:06.001Z,34.63
2018-12-18T00:22:33.492Z,36.00
2018-12-18T00:25:00.961Z,35.40
2018-12-18T00:27:28.416Z,33.90
2018-12-18T00:29:55.861Z,36.40
2018-12-18T00:32:23.324Z,36.00
2018-12-18T00:34:50.765Z,35.30
2018-12-18T00:37:18.302Z,34.77
2018-12-18T00:39:46.003Z,36.33
2018-12-18T00:42:13.488Z,35.80
2018-12-18T00:44:40.948Z,35.47
2018-12-18T00:47:08.398Z,37.83
2018-12-18T00:49:35.845Z,35.30
2018-12-18T00:52:03.305Z,33.23
2018-12-18T00:54:30.787Z,31.87
2018-12-18T00:56:58.246Z,31.97
2018-12-18T00:59:25.706Z,32.60
2018-12-18T01:01:58.778Z,30.82
2018-12-18T01:04:26.234Z,30.83
2018-12-18T01:06:54.048Z,28.42
2018-12-18T01:09:21.703Z,30.00
2018-12-18T01:11:49.886Z,32.05
2018-12-18T01:14:17.339Z,30.20
2018-12-18T01:16:44.801Z,32.00
2018-12-18T01:19:12.244Z,30.50
2018-12-18T01:21:39.700Z,27.47
2018-12-18T01:24:07.176Z,31.30
2018-12-18T01:26:34.621Z,30.43
2018-12-18T01:29:02.092Z,32.03
2018-12-18T01:31:29.545Z,29.52
2018-12-18T01:33:59.388Z,29.23
2018-12-18T01:36:26.481Z,27.85
2018-12-18T01:38:53.942Z,28.27
2018-12-18T01:41:21.382Z,28.97
2018-12-18T01:43:48.849Z,30.57
2018-12-18T01:46:16.296Z,27.17
2018-12-18T01:48:43.750Z,28.73
2018-12-18T01:51:11.193Z,25.77
2018-12-18T01:53:38.658Z,26.45
2018-12-18T01:56:06.114Z,27.77
2018-12-18T01:58:33.574Z,27.30
2018-12-18T02:01:01.027Z,27.43
2018-12-18T02:03:28.502Z,26.20
2018-12-18T02:05:56.338Z,25.68
2018-12-18T02:08:23.798Z,26.67
2018-12-18T02:10:51.247Z,26.00
2018-12-18T02:13:18.702Z,28.87
2018-12-18T02:15:46.173Z,27.40
2018-12-18T02:18:13.626Z,25.90
2018-12-18T02:20:41.094Z,26.40
2018-12-18T02:23:08.546Z,26.60
2018-12-18T02:25:36.005Z,27.40
2018-12-18T02:28:03.457Z,26.33
2018-12-18T02:30:31.298Z,27.80
2018-12-18T02:32:58.751Z,26.83
2018-12-18T02:35:26.229Z,29.70
2018-12-18T02:37:53.785Z,27.10
2018-12-18T02:43:51.351Z,25.85
2018-12-18T02:46:18.905Z,25.07
2018-12-18T02:48:46.359Z,26.20
2018-12-18T02:51:13.823Z,25.23
2018-12-18T02:53:41.279Z,26.50
2018-12-18T02:56:08.743Z,25.07
2018-12-18T02:58:36.196Z,25.30
2018-12-18T03:01:03.665Z,26.60
2018-12-18T03:03:31.154Z,26.97
2018-12-18T03:05:58.610Z,25.87
2018-12-18T03:08:26.061Z,26.50
2018-12-18T03:10:53.526Z,25.13
2018-12-18T03:13:20.982Z,25.03
2018-12-18T03:15:48.449Z,25.27
2018-12-18T03:18:15.909Z,26.27
2018-12-18T03:20:43.362Z,25.20
2018-12-18T03:23:10.826Z,24.90
2018-12-18T03:25:38.283Z,26.53
2018-12-18T03:28:05.817Z,25.37
2018-12-18T03:30:33.264Z,26.83
2018-12-18T03:33:00.811Z,25.60
2018-12-18T03:35:28.342Z,26.37
2018-12-18T03:37:55.813Z,25.40
2018-12-18T03:40:23.257Z,25.77
2018-12-18T03:42:50.717Z,25.03
2018-12-18T03:45:18.165Z,25.80
2018-12-18T03:47:45.629Z,25.65
2018-12-18T03:50:13.081Z,26.27
2018-12-18T03:52:40.546Z,28.43
2018-12-18T03:55:08.067Z,26.20
2018-12-18T03:57:35.543Z,23.80
2018-12-18T04:00:04.079Z,26.30
2018-12-18T04:02:31.538Z,25.77
2018-12-18T04:04:58.987Z,27.20
2018-12-18T04:07:26.438Z,27.13
2018-12-18T04:09:53.901Z,28.00
2018-12-18T04:12:21.635Z,24.83
2018-12-18T04:14:49.279Z,25.80
2018-12-18T04:17:16.745Z,26.77
2018-12-18T04:19:44.226Z,26.23
2018-12-18T04:22:12.548Z,26.10
2018-12-18T04:24:40.069Z,26.50
2018-12-18T04:27:07.517Z,25.57
2018-12-18T04:29:34.978Z,30.20
2018-12-18T04:32:02.420Z,27.17
2018-12-18T04:34:29.915Z,24.50
2018-12-18T04:36:57.440Z,24.20
2018-12-18T04:39:24.909Z,23.07
2018-12-18T04:41:52.356Z,19.93
2018-12-18T04:44:19.831Z,22.82
2018-12-18T04:46:49.286Z,22.20
2018-12-18T04:49:16.853Z,21.53
2018-12-18T04:51:44.306Z,23.87
2018-12-18T04:54:11.820Z,23.87
2018-12-18T04:56:39.256Z,23.83
2018-12-18T04:59:06.701Z,22.27
2018-12-18T05:01:34.164Z,22.80
2018-12-18T05:04:01.621Z,25.30
2018-12-18T05:06:29.407Z,23.03
2018-12-18T05:08:56.850Z,22.23
2018-12-18T05:11:24.313Z,23.50
2018-12-18T05:13:51.766Z,23.37
2018-12-18T05:16:19.228Z,24.07
2018-12-18T05:18:46.679Z,23.23
2018-12-18T05:21:14.158Z,22.17
2018-12-18T05:23:41.620Z,25.03
2018-12-18T05:26:09.082Z,24.70
2018-12-18T05:28:36.539Z,23.35
2018-12-18T05:31:04.001Z,24.95
2018-12-18T05:33:31.464Z,25.00
2018-12-18T05:35:58.934Z,24.20
2018-12-18T05:38:26.378Z,25.90
2018-12-18T05:40:53.922Z,26.53
2018-12-18T05:43:21.449Z,25.53
2018-12-18T05:45:48.907Z,26.60
2018-12-18T05:48:16.370Z,25.27
2018-12-18T05:50:43.820Z,23.63
2018-12-18T05:53:11.286Z,27.20
2018-12-18T05:55:38.761Z,28.10
2018-12-18T05:58:06.241Z,24.83
2018-12-18T06:00:33.687Z,27.43
2018-12-18T06:03:01.159Z,25.20
2018-12-18T06:05:28.594Z,28.17
2018-12-18T06:07:56.181Z,26.75
2018-12-18T06:10:24.630Z,26.83
2018-12-18T06:12:52.117Z,24.57
2018-12-18T06:15:19.554Z,25.10
2018-12-18T06:17:47.266Z,29.03
2018-12-18T06:20:14.694Z,27.00
2018-12-18T06:22:42.484Z,28.70
2018-12-18T06:25:10.119Z,26.23
2018-12-18T06:27:37.722Z,27.37
2018-12-18T06:30:07.106Z,28.33
2018-12-18T06:32:34.709Z,30.32
2018-12-18T06:35:02.140Z,28.20
2018-12-18T06:37:30.023Z,27.50
2018-12-18T06:39:57.459Z,27.93
2018-12-18T06:42:24.901Z,28.00
2018-12-18T06:44:52.578Z,27.02
2018-12-18T06:47:20.025Z,28.60
2018-12-18T06:49:47.621Z,87.90
2018-12-18T06:52:15.058Z,41.03
2018-12-18T06:54:42.619Z,32.25
2018-12-18T06:57:10.056Z,29.90
2018-12-18T06:59:38.089Z,27.50
2018-12-18T07:02:05.506Z,28.33
2018-12-18T07:04:33.300Z,27.53
2018-12-18T07:07:00.732Z,28.70
2018-12-18T07:09:29.114Z,27.75
2018-12-18T07:11:56.552Z,30.27
2018-12-18T07:14:24.116Z,27.20
2018-12-18T07:16:51.547Z,32.17
2018-12-18T07:19:19.291Z,29.80
2018-12-18T07:21:46.728Z,26.30
2018-12-18T07:24:14.436Z,27.73
2018-12-18T07:26:41.920Z,26.30
2018-12-18T07:29:09.348Z,24.77
2018-12-18T07:31:37.197Z,27.10
2018-12-18T07:34:04.626Z,26.27
2018-12-18T07:36:32.171Z,25.50
2018-12-18T07:38:59.674Z,28.20
2018-12-18T07:41:27.200Z,29.72
2018-12-18T07:43:54.633Z,26.90
2018-12-18T07:46:22.572Z,26.60
2018-12-18T07:48:50.025Z,28.17
2018-12-18T07:51:17.799Z,26.40
2018-12-18T07:53:45.231Z,26.60
2018-12-18T07:56:13.029Z,27.75
2018-12-18T07:58:40.458Z,26.20
2018-12-18T08:01:08.015Z,27.13
2018-12-18T08:03:35.486Z,27.23
2018-12-18T08:06:02.956Z,27.70
2018-12-18T08:08:30.417Z,28.03
2018-12-18T08:10:57.885Z,25.23
2018-12-18T08:13:25.342Z,24.43
2018-12-18T08:15:52.788Z,29.57
2018-12-18T08:18:20.246Z,25.63
2018-12-18T08:20:47.694Z,26.10
2018-12-18T08:23:15.171Z,26.70
2018-12-18T08:25:42.614Z,25.30
2018-12-18T08:28:10.079Z,25.50
2018-12-18T08:30:37.529Z,27.20
2018-12-18T08:33:04.997Z,27.77
2018-12-18T08:35:36.465Z,26.70
2018-12-18T08:38:01.943Z,28.03
2018-12-18T08:40:29.387Z,27.53
2018-12-18T08:42:56.859Z,28.33
2018-12-18T08:45:24.313Z,28.00
2018-12-18T08:47:51.808Z,27.50
2018-12-18T08:50:19.277Z,26.43
2018-12-18T08:52:46.745Z,26.77
2018-12-18T08:55:14.191Z,30.10
2018-12-18T08:57:42.162Z,27.37
2018-12-18T09:00:09.708Z,25.73
2018-12-18T09:02:37.170Z,25.90
2018-12-18T09:05:05.518Z,27.87
2018-12-18T09:07:32.969Z,24.97
2018-12-18T09:10:00.432Z,25.45
2018-12-18T09:12:27.873Z,23.73
2018-12-18T09:14:57.781Z,25.83
2018-12-18T09:17:30.969Z,26.10
2018-12-18T09:19:58.464Z,28.30
2018-12-18T09:22:25.905Z,24.72
2018-12-18T09:24:53.366Z,28.53
2018-12-18T09:27:20.814Z,26.03
2018-12-18T09:29:48.270Z,26.50
2018-12-18T09:32:15.722Z,26.73
2018-12-18T09:34:43.189Z,29.27
2018-12-18T09:37:10.657Z,27.52
2018-12-18T09:39:42.943Z,28.63
2018-12-18T09:42:16.035Z,31.70
2018-12-18T09:44:43.501Z,28.37
2018-12-18T09:47:11.166Z,28.03
2018-12-18T09:49:38.778Z,26.17
2018-12-18T09:52:06.277Z,29.67
2018-12-18T09:54:33.790Z,29.77
2018-12-18T09:57:01.221Z,29.27
2018-12-18T09:59:29.063Z,31.47
2018-12-18T10:01:56.834Z,30.90
2018-12-18T10:04:24.292Z,29.53
2018-12-18T10:06:51.757Z,28.50
2018-12-18T10:09:19.201Z,28.43
2018-12-18T10:11:46.671Z,30.72
2018-12-18T10:14:14.126Z,29.87
2018-12-18T10:16:41.595Z,31.57
2018-12-18T10:19:09.045Z,33.80
2018-12-18T10:21:36.510Z,32.77
2018-12-18T10:24:04.125Z,31.25
2018-12-18T10:26:31.606Z,31.40
2018-12-18T10:28:59.053Z,35.25
2018-12-18T10:31:26.590Z,31.00
2018-12-18T10:33:54.033Z,36.20
2018-12-18T10:36:21.470Z,32.07
2018-12-18T10:38:48.935Z,35.87
2018-12-18T10:41:16.394Z,34.43
2018-12-18T10:43:43.946Z,33.60
2018-12-18T10:46:11.659Z,32.67
2018-12-18T10:48:39.451Z,34.50
2018-12-18T10:51:06.913Z,33.65
2018-12-18T10:53:34.426Z,33.07
2018-12-18T10:56:01.872Z,30.63
2018-12-18T10:58:29.432Z,31.50
2018-12-18T11:01:02.424Z,31.57
2018-12-18T11:03:30.107Z,30.27
2018-12-18T11:05:57.543Z,34.20
2018-12-18T11:08:25.086Z,31.95
2018-12-18T11:10:52.527Z,35.07
2018-12-18T11:13:20.240Z,40.97
2018-12-18T11:15:47.686Z,42.70
2018-12-18T11:18:15.782Z,39.30
2018-12-18T11:20:43.215Z,42.07
2018-12-18T11:23:10.673Z,43.30
2018-12-18T11:25:38.266Z,47.00
2018-12-18T11:28:05.695Z,43.73
2018-12-18T11:30:33.389Z,41.53
2018-12-18T11:33:00.832Z,44.27
2018-12-18T11:35:28.611Z,44.53
2018-12-18T11:37:56.511Z,51.00
2018-12-18T11:40:24.142Z,53.20
2018-12-18T11:42:51.586Z,51.03
2018-12-18T11:45:19.374Z,55.47
2018-12-18T11:47:46.812Z,51.07
2018-12-18T11:50:14.594Z,49.83
2018-12-18T11:52:42.052Z,44.83
2018-12-18T11:55:09.638Z,44.10
2018-12-18T11:57:37.080Z,42.57
2018-12-18T12:00:08.765Z,42.57
2018-12-18T12:02:40.021Z,42.62
2018-12-18T12:05:06.228Z,44.13
2018-12-18T12:07:33.668Z,38.38
2018-12-18T12:10:01.343Z,41.20
2018-12-18T12:12:28.786Z,35.80
2018-12-18T12:14:56.886Z,37.20
2018-12-18T12:17:24.694Z,37.03
2018-12-18T12:19:52.143Z,37.37
2018-12-18T12:22:19.878Z,39.75
2018-12-18T12:24:47.322Z,36.53
2018-12-18T12:27:20.965Z,37.78
2018-12-18T12:29:48.388Z,37.50
2018-12-18T12:32:16.178Z,32.48
2018-12-18T12:34:43.625Z,28.77
2018-12-18T12:37:11.391Z,28.35
2018-12-18T12:39:38.834Z,29.83
2018-12-18T12:42:06.629Z,26.67
2018-12-18T12:44:34.081Z,27.47
2018-12-18T12:47:01.862Z,29.27
2018-12-18T12:49:34.797Z,27.62
2018-12-18T12:52:02.513Z,26.00
2018-12-18T12:54:29.933Z,27.03
2018-12-18T12:56:57.830Z,22.48
2018-12-18T12:59:25.465Z,18.07
2018-12-18T13:01:52.930Z,19.17
2018-12-18T13:04:20.389Z,17.80
2018-12-18T13:06:47.837Z,17.48
2018-12-18T13:09:15.297Z,19.37
2018-12-18T13:11:42.838Z,17.00
2018-12-18T13:14:10.305Z,17.67
2018-12-18T13:16:37.749Z,18.90
2018-12-18T13:19:05.205Z,18.70
2018-12-18T13:21:32.654Z,19.50
2018-12-18T13:24:00.122Z,19.10
2018-12-18T13:26:27.574Z,18.83
2018-12-18T13:28:55.033Z,17.93
2018-12-18T13:31:22.486Z,20.85
2018-12-18T13:33:49.965Z,16.93
2018-12-18T13:36:17.427Z,19.53
2018-12-18T13:38:44.938Z,20.37
2018-12-18T13:41:12.518Z,20.80
2018-12-18T13:43:39.999Z,18.13
2018-12-18T13:46:07.564Z,20.00
2018-12-18T13:48:36.431Z,18.07
2018-12-18T13:51:04.157Z,19.57
2018-12-18T13:53:31.611Z,30.07
2018-12-18T13:55:59.062Z,31.17
2018-12-18T13:58:26.493Z,30.15
2018-12-18T14:00:53.968Z,34.10
2018-12-18T14:03:21.415Z,29.50
2018-12-18T14:05:48.885Z,26.67
2018-12-18T14:08:16.322Z,25.77
2018-12-18T14:10:43.779Z,22.67
2018-12-18T14:13:11.221Z,17.17
2018-12-18T14:15:38.683Z,13.33
2018-12-18T14:18:06.110Z,11.50
2018-12-18T14:20:33.943Z,11.50
2018-12-18T14:23:01.377Z,12.10
2018-12-18T14:25:29.003Z,12.23
2018-12-18T14:27:56.448Z,12.50
2018-12-18T14:30:24.073Z,17.47
2018-12-18T14:32:51.505Z,18.20
2018-12-18T14:35:18.977Z,16.07
2018-12-18T14:37:46.422Z,13.53
2018-12-18T14:40:13.893Z,14.73
2018-12-18T14:42:41.347Z,13.93
2018-12-18T14:45:08.816Z,13.40
2018-12-18T14:47:36.271Z,15.08
2018-12-18T14:50:04.876Z,14.47
2018-12-18T14:52:32.336Z,14.53
2018-12-18T14:54:59.783Z,14.73
2018-12-18T14:57:27.262Z,14.50
2018-12-18T14:59:54.709Z,14.67
2018-12-18T15:02:22.176Z,16.13
2018-12-18T15:04:49.630Z,13.50
2018-12-18T15:07:17.094Z,15.90
2018-12-18T15:09:44.541Z,13.83
2018-12-18T15:12:12.005Z,13.67
2018-12-18T15:14:39.442Z,15.37
2018-12-18T15:17:06.917Z,12.77
2018-12-18T15:19:34.357Z,14.45
2018-12-18T15:22:01.831Z,14.13
2018-12-18T15:24:29.277Z,12.50
2018-12-18T15:26:56.741Z,12.97
2018-12-18T15:29:24.193Z,14.00
2018-12-18T15:31:51.751Z,15.90
2018-12-18T15:34:19.208Z,15.10
2018-12-18T15:36:46.745Z,14.33
2018-12-18T15:39:14.217Z,14.73
2018-12-18T15:41:41.666Z,13.60
2018-12-18T15:44:09.157Z,14.20
2018-12-18T15:46:36.599Z,14.20
2018-12-18T15:49:04.081Z,13.08
2018-12-18T15:51:31.538Z,13.75
2018-12-18T15:53:58.999Z,13.58
2018-12-18T15:56:26.514Z,11.90
2018-12-18T15:58:53.991Z,13.97
2018-12-18T16:01:21.439Z,18.13
2018-12-18T16:03:48.899Z,14.73
2018-12-18T16:06:16.353Z,13.78
2018-12-18T16:08:43.817Z,13.37
2018-12-18T16:11:11.260Z,15.33
2018-12-18T16:13:38.730Z,14.33
2018-12-18T16:16:06.466Z,15.30
2018-12-18T16:18:33.932Z,14.80
2018-12-18T16:21:01.390Z,13.97
2018-12-18T16:23:28.859Z,14.00
2018-12-18T16:25:57.831Z,14.58
2018-12-18T16:28:25.312Z,15.10
2018-12-18T16:30:52.770Z,14.53
2018-12-18T16:33:20.222Z,13.67
2018-12-18T16:35:47.711Z,13.30
2018-12-18T16:38:15.159Z,15.03
2018-12-18T16:40:42.621Z,13.73
2018-12-18T16:43:10.062Z,15.00
2018-12-18T16:45:37.538Z,14.50
2018-12-18T16:48:04.990Z,13.93
2018-12-18T16:50:32.457Z,12.50
2018-12-18T16:52:59.934Z,14.15
2018-12-18T16:55:27.391Z,23.47
2018-12-18T16:57:54.842Z,25.93
2018-12-18T17:00:22.310Z,21.80
2018-12-18T17:02:49.768Z,17.55
2018-12-18T17:05:17.237Z,14.63
2018-12-18T17:07:44.696Z,14.47
2018-12-18T17:10:12.263Z,12.83
2018-12-18T17:12:41.730Z,15.53
2018-12-18T17:15:09.200Z,15.60
2018-12-18T17:17:36.660Z,16.00
2018-12-18T17:20:05.122Z,16.77
2018-12-18T17:22:32.598Z,18.97
2018-12-18T17:25:00.059Z,16.07
2018-12-18T17:27:27.530Z,18.40
2018-12-18T17:29:54.986Z,17.60
2018-12-18T17:32:22.456Z,17.13
2018-12-18T17:34:49.930Z,15.60
2018-12-18T17:37:17.387Z,19.53
2018-12-18T17:39:44.863Z,19.43
2018-12-18T17:42:12.395Z,17.40
2018-12-18T17:44:41.118Z,16.77
2018-12-18T17:47:08.942Z,17.37
2018-12-18T17:49:36.405Z,17.27
2018-12-18T17:52:03.947Z,15.37
2018-12-18T17:54:32.260Z,16.43
2018-12-18T17:56:59.726Z,16.03
2018-12-18T17:59:27.177Z,16.60
2018-12-18T18:01:54.622Z,15.70
2018-12-18T18:04:22.088Z,13.40
2018-12-18T18:06:49.545Z,16.60
2018-12-18T18:09:17.335Z,15.63
2018-12-18T18:11:44.789Z,16.00
2018-12-18T18:14:12.272Z,15.08
2018-12-18T18:16:39.718Z,14.85
2018-12-18T18:19:07.186Z,14.33
2018-12-18T18:21:34.634Z,16.23
2018-12-18T18:24:02.103Z,13.80
2018-12-18T18:26:29.552Z,15.40
2018-12-18T18:28:57.038Z,14.90
2018-12-18T18:31:24.502Z,24.10
2018-12-18T18:33:51.967Z,30.20
2018-12-18T18:36:19.419Z,19.55
2018-12-18T18:38:46.899Z,15.85
2018-12-18T18:41:14.346Z,13.43
2018-12-18T18:43:41.811Z,12.27
2018-12-18T18:46:09.249Z,13.57
2018-12-18T18:48:36.968Z,12.83
2018-12-18T18:51:04.439Z,13.07
2018-12-18T18:53:31.886Z,10.80
2018-12-18T18:55:59.355Z,10.57
2018-12-18T18:58:26.810Z,10.73
2018-12-18T19:00:54.284Z,11.90
2018-12-18T19:03:21.754Z,11.73
2018-12-18T19:05:49.253Z,11.40
2018-12-18T19:08:16.702Z,12.30
2018-12-18T19:10:44.187Z,12.10
2018-12-18T19:13:11.660Z,10.87
2018-12-18T19:15:39.114Z,9.70
2018-12-18T19:18:06.590Z,11.83
2018-12-18T19:20:34.062Z,11.43
2018-12-18T19:23:01.522Z,15.03
2018-12-18T19:25:29.018Z,12.50
2018-12-18T19:27:56.619Z,12.60
2018-12-18T19:30:24.125Z,12.37
2018-12-18T19:32:51.662Z,12.27
2018-12-18T19:35:19.130Z,12.67
2018-12-18T19:37:46.694Z,13.08
2018-12-18T19:40:14.158Z,13.37
2018-12-18T19:42:41.609Z,20.80
2018-12-18T19:45:09.050Z,14.77
2018-12-18T19:47:36.541Z,14.40
2018-12-18T19:50:04.642Z,13.40
2018-12-18T19:52:32.132Z,14.57
2018-12-18T19:54:59.581Z,12.00
2018-12-18T19:57:27.041Z,13.78
2018-12-18T19:59:54.483Z,13.37
2018-12-18T20:02:21.947Z,13.60
2018-12-18T20:04:49.426Z,12.43
2018-12-18T20:07:16.893Z,12.90
2018-12-18T20:09:44.373Z,13.43
2018-12-18T20:12:11.869Z,12.17
2018-12-18T20:14:39.729Z,13.27
2018-12-18T20:17:07.683Z,11.97
2018-12-18T20:19:35.542Z,11.97
2018-12-18T20:22:02.993Z,11.77
2018-12-18T20:24:30.515Z,11.90
2018-12-18T20:26:58.037Z,11.30
2018-12-18T20:29:25.501Z,10.63
2018-12-18T20:31:52.960Z,10.17
2018-12-18T20:34:20.486Z,10.90
2018-12-18T20:36:47.929Z,8.30
2018-12-18T20:39:15.421Z,7.35
2018-12-18T20:41:42.870Z,8.83
2018-12-18T20:44:10.325Z,9.93
2018-12-18T20:46:37.773Z,7.10
2018-12-18T20:49:05.241Z,7.10
2018-12-18T20:51:32.681Z,8.43
2018-12-18T20:54:00.149Z,12.90
2018-12-18T20:56:27.615Z,10.60
2018-12-18T20:58:55.238Z,8.47
2018-12-18T21:01:22.707Z,9.17
2018-12-18T21:03:50.234Z,9.43
2018-12-18T21:06:17.686Z,8.87
2018-12-18T21:08:45.132Z,8.53
2018-12-18T21:11:12.677Z,10.60
2018-12-18T21:13:40.139Z,10.50
2018-12-18T21:16:07.608Z,10.43
2018-12-18T21:18:35.181Z,9.50
2018-12-18T21:21:03.543Z,10.90
2018-12-18T21:23:31.001Z,11.13
2018-12-18T21:25:58.470Z,9.80
2018-12-18T21:28:25.927Z,11.50
2018-12-18T21:30:53.402Z,11.30
2018-12-18T21:33:21.000Z,11.10
2018-12-18T21:35:48.557Z,14.03
2018-12-18T21:38:16.034Z,13.98
2018-12-18T21:40:43.489Z,14.30
2018-12-18T21:43:10.958Z,14.78
2018-12-18T21:45:38.409Z,16.30
2018-12-18T21:48:05.887Z,16.63
2018-12-18T21:50:33.329Z,15.23
2018-12-18T21:53:00.793Z,16.37
2018-12-18T21:55:28.247Z,15.13
2018-12-18T21:57:55.714Z,14.63
2018-12-18T22:00:23.166Z,13.55
2018-12-18T22:02:51.487Z,13.40
2018-12-18T22:05:19.314Z,14.80
2018-12-18T22:07:46.777Z,14.87
2018-12-18T22:10:14.237Z,14.30
2018-12-18T22:12:41.706Z,14.00
2018-12-18T22:15:09.155Z,14.35
2018-12-18T22:17:36.619Z,15.73
2018-12-18T22:20:05.388Z,16.07
2018-12-18T22:22:32.849Z,15.30
2018-12-18T22:25:00.322Z,19.15
2018-12-18T22:27:27.770Z,16.93
2018-12-18T22:29:55.244Z,17.40
2018-12-18T22:32:22.699Z,18.00
2018-12-18T22:34:50.165Z,17.83
2018-12-18T22:37:17.607Z,19.77
2018-12-18T22:39:45.066Z,18.50
2018-12-18T22:42:12.513Z,17.50
2018-12-18T22:44:39.973Z,17.43
2018-12-18T22:47:07.417Z,15.97
2018-12-18T22:49:34.884Z,16.95
2018-12-18T22:52:02.341Z,17.80
2018-12-18T22:54:29.802Z,18.97
2018-12-18T22:56:57.254Z,15.50
2018-12-18T22:59:24.715Z,16.00
2018-12-18T23:01:52.166Z,17.03
2018-12-18T23:04:19.629Z,17.90
2018-12-18T23:06:47.078Z,16.15
2018-12-18T23:09:15.119Z,16.60
2018-12-18T23:11:42.594Z,19.20
2018-12-18T23:14:10.039Z,16.70
2018-12-18T23:16:37.505Z,17.23
2018-12-18T23:19:04.954Z,16.80
2018-12-18T23:21:32.540Z,15.20
2018-12-18T23:23:59.997Z,16.15
2018-12-18T23:26:27.464Z,15.83
2018-12-18T23:28:54.913Z,16.07
2018-12-18T23:31:22.385Z,15.00
2018-12-18T23:33:49.829Z,15.10
2018-12-18T23:36:17.302Z,13.60
2018-12-18T23:38:44.773Z,12.30
2018-12-18T23:41:12.437Z,11.60
2018-12-18T23:43:39.896Z,28.63
2018-12-18T23:46:07.357Z,11.77
2018-12-18T23:48:39.708Z,11.37
2018-12-18T23:51:04.492Z,10.00
2018-12-18T23:53:31.945Z,9.33
2018-12-18T23:55:59.410Z,10.93
2018-12-18T23:58:26.858Z,8.93
